Time;durP1;ratioP1;P1;durP2;ratioP2;P2;SDS_P1;SDS_P2;PMS_P1;PMS_P2;Temp;Humidity;BMP_temperature;BMP_pressure;BME280_temperature;BME280_humidity;BME280_pressure;Samples;Min_cycle;Max_cycle;Signal;HPM_P1;HPM_P2
2023/04/15 00:00:14;;;;;;;;;;;4.40;1.00;;;;;;5090065;28;19912;-73
2023/04/15 00:02:40;;;;;;;;;;;4.40;1.00;;;;;;5093968;28;20255;-73
2023/04/15 00:05:06;;;;;;;;;;;4.40;1.00;;;;;;5074874;28;19915;-73
2023/04/15 00:07:32;;;;;;;;;;;4.40;1.00;;;;;;5074364;28;19987;-73
2023/04/15 00:09:58;;;;;;;;;;;4.30;1.00;;;;;;5075061;28;19942;-73
2023/04/15 00:12:27;;;;;;;;;;;4.30;1.00;;;;;;5056506;28;19904;-73
2023/04/15 00:14:53;;;;;;;;;;;4.30;1.00;;;;;;5074460;28;19908;-74
2023/04/15 00:17:19;;;;;;;;;;;4.30;1.00;;;;;;5074496;28;19960;-74
2023/04/15 00:19:44;;;;;;;;;;;4.30;1.00;;;;;;5092839;28;19947;-73
2023/04/15 00:22:11;;;;;;;;;;;4.30;1.00;;;;;;5093912;28;20331;-74
2023/04/15 00:24:37;;;;;;;;;;;4.30;1.00;;;;;;5094594;28;19904;-73
2023/04/15 00:27:03;;;;;;;;;;;4.30;1.00;;;;;;5092813;28;19927;-73
2023/04/15 00:29:29;;;;;;;;;;;4.30;1.00;;;;;;5074088;28;20351;-73
2023/04/15 00:31:55;;;;;;;;;;;4.20;1.00;;;;;;5074219;28;19915;-73
2023/04/15 00:34:22;;;;;;;;;;;4.20;1.00;;;;;;5073821;28;20010;-74
2023/04/15 00:36:47;;;;;;;;;;;4.20;1.00;;;;;;5090699;28;19908;-73
2023/04/15 00:39:13;;;;;;;;;;;4.20;1.00;;;;;;5089075;28;20018;-74
2023/04/15 00:41:39;;;;;;;;;;;4.20;1.00;;;;;;5074093;28;19911;-73
2023/04/15 00:44:05;;;;;;;;;;;4.30;1.00;;;;;;5074052;28;19936;-73
2023/04/15 00:46:34;;;;;;;;;;;4.20;1.00;;;;;;5074069;28;20308;-74
2023/04/15 00:49:01;;;;;;;;;;;4.20;1.00;;;;;;5074286;28;20325;-73
2023/04/15 00:51:27;;;;;;;;;;;4.20;1.00;;;;;;5074015;28;19954;-73
2023/04/15 00:53:52;;;;;;;;;;;4.20;1.00;;;;;;5074411;28;19912;-73
2023/04/15 01:05:27;;;;;;;;;;;4.30;1.00;;;;;;5073803;28;19912;-78
2023/04/15 01:08:15;;;;;;;;;;;4.30;1.00;;;;;;5055795;28;20280;-78
2023/04/15 01:10:41;;;;;;;;;;;4.30;1.00;;;;;;5074225;28;19904;-73
2023/04/15 01:13:09;;;;;;;;;;;4.30;1.00;;;;;;5073954;28;19912;-74
2023/04/15 01:15:39;;;;;;;;;;;4.20;1.00;;;;;;5076859;28;19920;-73
2023/04/15 01:18:06;;;;;;;;;;;4.20;1.00;;;;;;5089946;28;20006;-73
2023/04/15 01:20:33;;;;;;;;;;;4.10;1.00;;;;;;5077675;28;19912;-73
2023/04/15 01:22:59;;;;;;;;;;;4.10;1.00;;;;;;5077375;28;19991;-73
2023/04/15 01:25:31;;;;;;;;;;;4.10;1.00;;;;;;5080542;28;19957;-74
2023/04/15 01:27:57;;;;;;;;;;;4.20;1.00;;;;;;5077809;28;20263;-73
2023/04/15 01:30:27;;;;;;;;;;;4.10;1.00;;;;;;5077498;28;20408;-73
2023/04/15 01:32:53;;;;;;;;;;;4.10;1.00;;;;;;5082544;28;20411;-74
2023/04/15 01:35:27;;;;;;;;;;;4.10;1.00;;;;;;5076973;28;19999;-74
2023/04/15 01:37:53;;;;;;;;;;;4.10;1.00;;;;;;5076981;28;19905;-74
2023/04/15 01:40:19;;;;;;;;;;;4.00;1.00;;;;;;5078389;28;20260;-73
2023/04/15 01:43:09;;;;;;;;;;;4.00;1.00;;;;;;5098512;28;19914;-78
2023/04/15 01:45:39;;;;;;;;;;;4.10;1.00;;;;;;5079884;28;20053;-78
2023/04/15 01:51:08;;;;;;;;;;;4.00;1.00;;;;;;5080199;28;19911;-78
2023/04/15 01:56:37;;;;;;;;;;;4.10;1.00;;;;;;5084067;28;19925;-74
2023/04/15 01:59:03;;;;;;;;;;;4.10;1.00;;;;;;5079728;28;19909;-74
2023/04/15 02:01:28;;;;;;;;;;;4.10;1.00;;;;;;5077675;28;20019;-74
2023/04/15 02:03:57;;;;;;;;;;;4.10;1.00;;;;;;5077367;28;19912;-73
2023/04/15 02:06:23;;;;;;;;;;;4.10;1.00;;;;;;5076742;28;19909;-73
2023/04/15 02:08:49;;;;;;;;;;;4.10;1.00;;;;;;5076763;28;19904;-74
2023/04/15 02:14:34;;;;;;;;;;;4.10;1.00;;;;;;5083423;28;19954;-78
2023/04/15 02:17:06;;;;;;;;;;;4.10;1.00;;;;;;5076606;28;19919;-78
2023/04/15 02:22:51;;;;;;;;;;;4.00;1.00;;;;;;5090445;28;19919;-78
2023/04/15 02:31:23;;;;;;;;;;;4.00;1.00;;;;;;5076473;28;19912;-78
2023/04/15 02:36:55;;;;;;;;;;;3.80;1.00;;;;;;5076115;28;19958;-78
2023/04/15 02:42:26;;;;;;;;;;;3.80;1.00;;;;;;5087149;28;19912;-73
2023/04/15 02:44:53;;;;;;;;;;;3.70;1.00;;;;;;5075964;28;19908;-74
2023/04/15 02:47:19;;;;;;;;;;;3.70;1.00;;;;;;5075959;28;20025;-73
2023/04/15 02:49:45;;;;;;;;;;;3.70;1.00;;;;;;5075638;28;20359;-74
2023/04/15 02:52:15;;;;;;;;;;;3.70;1.00;;;;;;5084605;28;20272;-74
2023/04/15 02:54:41;;;;;;;;;;;3.70;1.00;;;;;;5077212;28;19919;-73
2023/04/15 03:03:13;;;;;;;;;;;3.50;1.00;;;;;;5075543;28;19928;-79
2023/04/15 03:08:42;;;;;;;;;;;3.50;1.00;;;;;;5076124;28;19915;-78
2023/04/15 03:14:11;;;;;;;;;;;3.40;1.00;;;;;;5075227;28;20005;-74
2023/04/15 03:16:36;;;;;;;;;;;3.40;1.00;;;;;;5075616;28;19947;-74
2023/04/15 03:19:03;;;;;;;;;;;3.30;1.00;;;;;;5075049;28;19918;-74
2023/04/15 03:21:29;;;;;;;;;;;3.30;1.00;;;;;;5075166;28;19952;-74
2023/04/15 03:23:55;;;;;;;;;;;3.30;1.00;;;;;;5057539;28;20274;-73
2023/04/15 03:26:28;;;;;;;;;;;3.30;1.00;;;;;;5092793;28;19908;-74
2023/04/15 03:28:54;;;;;;;;;;;3.30;1.00;;;;;;5083332;28;20344;-74
2023/04/15 03:31:19;;;;;;;;;;;3.20;1.00;;;;;;5075264;28;19911;-74
2023/04/15 03:33:45;;;;;;;;;;;3.20;1.00;;;;;;5074668;28;20014;-74
2023/04/15 03:36:15;;;;;;;;;;;3.20;1.00;;;;;;5081731;28;19995;-73
2023/04/15 03:38:41;;;;;;;;;;;3.10;1.00;;;;;;5091218;28;20004;-74
2023/04/15 03:41:09;;;;;;;;;;;3.10;1.00;;;;;;5078511;28;20493;-74
2023/04/15 03:44:03;;;;;;;;;;;3.00;1.00;;;;;;5076291;28;19912;-78
2023/04/15 03:55:40;;;;;;;;;;;3.00;1.00;;;;;;5095012;28;19958;-78
2023/04/15 03:58:06;;;;;;;;;;;3.00;1.00;;;;;;5091400;28;19912;-74
2023/04/15 04:00:32;;;;;;;;;;;3.00;1.00;;;;;;5074835;28;19953;-74
2023/04/15 04:02:57;;;;;;;;;;;3.00;1.00;;;;;;5075663;28;19931;-74
2023/04/15 04:05:23;;;;;;;;;;;2.90;1.00;;;;;;5083090;28;19970;-73
2023/04/15 04:07:49;;;;;;;;;;;2.90;1.00;;;;;;5094014;28;19904;-74
2023/04/15 04:10:14;;;;;;;;;;;2.90;1.00;;;;;;5094825;28;20006;-73
2023/04/15 04:15:46;;;;;;;;;;;2.90;1.00;;;;;;5094889;28;19954;-78
2023/04/15 04:21:14;;;;;;;;;;;2.90;1.00;;;;;;5093781;28;19915;-78
2023/04/15 04:24:09;;;;;;;;;;;2.90;1.00;;;;;;5075014;28;19908;-84
2023/04/15 04:26:35;;;;;;;;;;;3.00;1.00;;;;;;5057554;28;19908;-89
2023/04/15 04:32:04;;;;;;;;;;;3.00;1.00;;;;;;5079582;28;19911;-89
2023/04/15 04:37:33;;;;;;;;;;;3.10;1.00;;;;;;5095230;28;19950;-89
2023/04/15 04:43:02;;;;;;;;;;;3.00;1.00;;;;;;5086247;28;19957;-85
2023/04/15 04:51:34;;;;;;;;;;;3.00;1.00;;;;;;5098136;28;19911;-85
2023/04/15 04:57:02;;;;;;;;;;;3.00;1.00;;;;;;5080766;28;20310;-85
2023/04/15 04:59:57;;;;;;;;;;;3.10;1.00;;;;;;5081203;28;19904;-88
2023/04/15 05:08:29;;;;;;;;;;;3.00;1.00;;;;;;5092838;28;20423;-88
2023/04/15 05:14:00;;;;;;;;;;;3.00;1.00;;;;;;5078662;28;20409;-85
2023/04/15 05:25:35;;;;;;;;;;;3.40;1.00;;;;;;5094514;28;20282;-84
2023/04/15 05:31:03;;;;;;;;;;;3.60;1.00;;;;;;5092318;28;19971;-86
2023/04/15 05:33:29;;;;;;;;;;;3.70;1.00;;;;;;5063902;28;19943;-85
2023/04/15 05:42:01;;;;;;;;;;;4.10;1.00;;;;;;5086740;28;19911;-85
2023/04/15 05:47:30;;;;;;;;;;;4.40;1.00;;;;;;5077592;28;19923;-88
2023/04/15 05:56:02;;;;;;;;;;;4.80;1.00;;;;;;5097823;28;19915;-89
2023/04/15 06:01:31;;;;;;;;;;;5.00;1.00;;;;;;5080797;28;19916;-89
2023/04/15 06:03:57;;;;;;;;;;;5.20;1.00;;;;;;5067761;28;20002;-87
2023/04/15 06:12:29;;;;;;;;;;;5.70;1.00;;;;;;5077170;28;19915;-87
2023/04/15 06:14:55;;;;;;;;;;;5.90;1.00;;;;;;5060170;28;20266;-86
2023/04/15 06:17:21;;;;;;;;;;;6.00;1.00;;;;;;5079564;28;20003;-87
2023/04/15 06:20:15;;;;;;;;;;;6.10;1.00;;;;;;5073743;28;19939;-84
2023/04/15 06:25:44;;;;;;;;;;;6.50;1.00;;;;;;5092113;28;20386;-87
2023/04/15 06:34:15;;;;;;;;;;;7.10;1.00;;;;;;5077040;28;19918;-87
2023/04/15 06:39:44;;;;;;;;;;;7.50;1.00;;;;;;5087080;28;20289;-87
2023/04/15 06:42:15;;;;;;;;;;;7.60;1.00;;;;;;5081643;28;19908;-87
2023/04/15 06:44:41;;;;;;;;;;;7.60;1.00;;;;;;5061385;28;19959;-87
2023/04/15 06:47:33;;;;;;;;;;;7.60;1.00;;;;;;5076276;28;19911;-87
2023/04/15 06:53:09;;;;;;;;;;;7.70;1.00;;;;;;5076541;28;19950;-87
2023/04/15 06:58:39;;;;;;;;;;;8.10;1.00;;;;;;5076454;28;19919;-88
2023/04/15 07:07:11;;;;;;;;;;;8.50;1.00;;;;;;5082675;28;19915;-88
2023/04/15 07:12:40;;;;;;;;;;;8.80;1.00;;;;;;5096101;28;19957;-89
2023/04/15 07:24:25;;;;;;;;;;;9.10;1.00;;;;;;5075579;28;20004;-89
2023/04/15 07:26:58;;;;;;;;;;;9.30;1.00;;;;;;5066225;28;19944;-89
2023/04/15 07:29:52;;;;;;;;;;;9.40;1.00;;;;;;5072707;28;19962;-89
2023/04/15 07:32:21;;;;;;;;;;;9.60;1.00;;;;;;5066670;28;19908;-89
2023/04/15 07:34:51;;;;;;;;;;;9.60;1.00;;;;;;5074588;28;19954;-89
2023/04/15 07:37:22;;;;;;;;;;;9.80;1.00;;;;;;5058419;28;19904;-89
2023/04/15 07:39:51;;;;;;;;;;;9.90;1.00;;;;;;5058160;28;19975;-89
2023/04/15 07:42:28;;;;;;;;;;;10.10;1.00;;;;;;5065514;28;19999;-89
2023/04/15 07:44:57;;;;;;;;;;;10.20;1.00;;;;;;5077495;28;20338;-87
2023/04/15 07:47:33;;;;;;;;;;;10.30;1.00;;;;;;5078119;28;19904;-87
2023/04/15 07:50:22;;;;;;;;;;;10.40;1.00;;;;;;5065700;28;19915;-86
2023/04/15 07:52:51;;;;;;;;;;;10.60;1.00;;;;;;5061616;28;19915;-86
2023/04/15 07:55:20;;;;;;;;;;;10.70;1.00;;;;;;5065921;28;19973;-86
2023/04/15 07:57:46;;;;;;;;;;;10.90;1.00;;;;;;5069796;28;19922;-87
2023/04/15 08:00:12;;;;;;;;;;;11.00;1.00;;;;;;5094314;28;19935;-89
2023/04/15 08:02:38;;;;;;;;;;;11.30;1.00;;;;;;5081665;28;19915;-89
2023/04/15 08:05:09;;;;;;;;;;;11.60;1.00;;;;;;5075838;28;19995;-90
2023/04/15 08:07:36;;;;;;;;;;;11.90;1.00;;;;;;5061876;28;20360;-89
2023/04/15 08:10:02;;;;;;;;;;;12.20;1.00;;;;;;5056530;28;19912;-90
2023/04/15 08:12:33;;;;;;;;;;;12.40;1.00;;;;;;5083448;28;19909;-90
2023/04/15 08:14:59;;;;;;;;;;;12.80;1.00;;;;;;5057699;28;19912;-90
2023/04/15 08:20:28;;;;;;;;;;;13.30;1.00;;;;;;5074975;28;19950;-90
2023/04/15 08:23:09;;;;;;;;;;;13.40;1.00;;;;;;5057196;28;20436;-90
2023/04/15 08:34:44;;;;;;;;;;;13.80;1.00;;;;;;5077758;28;19920;-87
2023/04/15 08:40:14;;;;;;;;;;;13.90;1.00;;;;;;5088338;28;19954;-89
2023/04/15 08:48:47;;;;;;;;;;;14.20;1.00;;;;;;5082391;28;20367;-89
2023/04/15 08:51:15;;;;;;;;;;;14.50;1.00;;;;;;5056633;28;19908;-90
2023/04/15 08:57:03;;;;;;;;;;;14.70;1.00;;;;;;5074133;28;19915;-76
2023/04/15 08:59:30;;;;;;;;;;;14.80;1.00;;;;;;5073984;28;19961;-77
2023/04/15 09:02:15;;;;;;;;;;;14.90;1.00;;;;;;5073753;28;19908;-77
2023/04/15 09:05:16;;;;;;;;;;;15.00;1.00;;;;;;5073668;28;19912;-77
2023/04/15 09:07:57;;;;;;;;;;;15.10;1.00;;;;;;5080946;28;19909;-76
2023/04/15 09:13:25;;;;;;;;;;;15.20;1.00;;;;;;5077299;28;19915;-77
2023/04/15 09:15:52;;;;;;;;;;;15.30;1.00;;;;;;5079806;28;19912;-73
2023/04/15 09:18:29;;;;;;;;;;;15.40;1.00;;;;;;5088199;28;20472;-74
2023/04/15 09:20:56;;;;;;;;;;;15.40;1.00;;;;;;5090136;28;19908;-73
2023/04/15 09:23:23;;;;;;;;;;;15.30;1.00;;;;;;5082991;28;20320;-73
2023/04/15 09:25:49;;;;;;;;;;;15.30;1.00;;;;;;5092040;28;19908;-73
2023/04/15 09:28:22;;;;;;;;;;;15.20;1.00;;;;;;5093833;28;20363;-73
2023/04/15 09:31:15;;;;;;;;;;;15.10;1.00;;;;;;5093205;28;19904;-76
2023/04/15 09:33:57;;;;;;;;;;;15.00;1.00;;;;;;5084656;28;19904;-77
2023/04/15 09:39:57;;;;;;;;;;;15.00;1.00;;;;;;5083621;28;20007;-77
2023/04/15 09:45:26;;;;;;;;;;;15.30;1.00;;;;;;5097447;28;20401;-77
2023/04/15 09:47:51;;;;;;;;;;;15.60;1.00;;;;;;5068803;28;20251;-73
2023/04/15 09:50:18;;;;;;;;;;;15.70;1.00;;;;;;5076738;28;19904;-73
2023/04/15 09:52:43;;;;;;;;;;;15.70;1.00;;;;;;5077107;28;19958;-73
2023/04/15 09:55:10;;;;;;;;;;;15.60;1.00;;;;;;5076857;28;20441;-72
2023/04/15 09:57:36;;;;;;;;;;;15.50;1.00;;;;;;5093421;28;19916;-72
2023/04/15 10:00:06;;;;;;;;;;;15.60;1.00;;;;;;5097233;28;19908;-73
2023/04/15 10:02:46;;;;;;;;;;;15.50;1.00;;;;;;5097601;28;19904;-77
2023/04/15 10:05:13;;;;;;;;;;;15.40;1.00;;;;;;5075502;28;19905;-78
2023/04/15 10:08:09;;;;;;;;;;;15.40;1.00;;;;;;5061391;28;19908;-78
2023/04/15 10:11:09;;;;;;;;;;;15.40;1.00;;;;;;5077173;28;19912;-77
2023/04/15 10:16:57;;;;;;;;;;;15.20;1.00;;;;;;5097107;28;19915;-77
2023/04/15 10:19:30;;;;;;;;;;;15.20;1.00;;;;;;5096923;28;19908;-74
2023/04/15 10:21:55;;;;;;;;;;;15.20;1.00;;;;;;5085726;28;20378;-73
2023/04/15 10:24:21;;;;;;;;;;;15.20;1.00;;;;;;5074237;28;19950;-73
2023/04/15 10:26:47;;;;;;;;;;;15.20;1.00;;;;;;5082335;28;19943;-73
2023/04/15 10:29:13;;;;;;;;;;;15.20;1.00;;;;;;5096050;28;19991;-73
2023/04/15 10:31:39;;;;;;;;;;;15.30;1.00;;;;;;5091472;28;19978;-73
2023/04/15 10:34:10;;;;;;;;;;;15.40;1.00;;;;;;5084184;28;20366;-73
2023/04/15 10:36:36;;;;;;;;;;;15.60;1.00;;;;;;5085444;28;20003;-73
2023/04/15 10:39:23;;;;;;;;;;;15.70;1.00;;;;;;5083698;28;20310;-73
2023/04/15 10:42:05;;;;;;;;;;;16.00;1.00;;;;;;5082123;28;19916;-73
2023/04/15 10:44:31;;;;;;;;;;;16.40;1.00;;;;;;5092754;28;20405;-77
2023/04/15 10:47:11;;;;;;;;;;;16.50;1.00;;;;;;5096160;28;19904;-77
2023/04/15 10:50:00;;;;;;;;;;;16.60;1.00;;;;;;5083026;28;19905;-73
2023/04/15 10:52:27;;;;;;;;;;;16.90;1.00;;;;;;5071301;28;19912;-73
2023/04/15 10:55:11;;;;;;;;;;;17.00;1.00;;;;;;5077281;28;19916;-73
2023/04/15 10:57:38;;;;;;;;;;;16.90;1.00;;;;;;5095973;28;19911;-73
2023/04/15 11:00:10;;;;;;;;;;;16.90;1.00;;;;;;5075938;28;19904;-73
2023/04/15 11:02:40;;;;;;;;;;;16.90;1.00;;;;;;5076111;28;19908;-73
2023/04/15 11:05:42;;;;;;;;;;;16.80;1.00;;;;;;5087629;28;19986;-73
2023/04/15 11:08:08;;;;;;;;;;;16.60;1.00;;;;;;5091826;28;19959;-73
2023/04/15 11:10:33;;;;;;;;;;;16.40;1.00;;;;;;5079033;28;19952;-73
2023/04/15 11:13:00;;;;;;;;;;;16.50;1.00;;;;;;5092582;28;19962;-73
2023/04/15 11:15:45;;;;;;;;;;;16.60;1.00;;;;;;5081663;28;19923;-73
2023/04/15 11:24:35;;;;;;;;;;;17.00;1.00;;;;;;5084364;28;19934;-77
2023/04/15 11:27:19;;;;;;;;;;;17.20;1.00;;;;;;5095464;28;19911;-77
2023/04/15 11:30:16;;;;;;;;;;;17.20;1.00;;;;;;5095622;28;19908;-77
2023/04/15 11:32:41;;;;;;;;;;;17.20;1.00;;;;;;5096087;28;19957;-73
2023/04/15 11:35:07;;;;;;;;;;;17.30;1.00;;;;;;5087345;28;19908;-73
2023/04/15 11:37:32;;;;;;;;;;;17.30;1.00;;;;;;5080119;28;20263;-73
2023/04/15 11:39:58;;;;;;;;;;;17.00;1.00;;;;;;5074974;28;19904;-73
2023/04/15 11:42:24;;;;;;;;;;;16.90;1.00;;;;;;5075085;28;20050;-72
2023/04/15 11:45:05;;;;;;;;;;;16.80;1.00;;;;;;5092295;28;19919;-73
2023/04/15 11:47:30;;;;;;;;;;;16.70;1.00;;;;;;5075726;28;19908;-72
2023/04/15 11:49:56;;;;;;;;;;;16.40;1.00;;;;;;5075335;28;19911;-77
2023/04/15 11:52:24;;;;;;;;;;;16.00;1.00;;;;;;5087495;28;19904;-77
2023/04/15 11:58:07;;;;;;;;;;;15.40;1.00;;;;;;5074427;28;20390;-78
2023/04/15 12:00:51;;;;;;;;;;;15.10;1.00;;;;;;5073986;28;19940;-77
2023/04/15 12:03:24;;;;;;;;;;;15.10;1.00;;;;;;5074751;28;19911;-73
2023/04/15 12:06:12;;;;;;;;;;;15.00;1.00;;;;;;5074494;28;20248;-72
2023/04/15 12:08:47;;;;;;;;;;;15.00;1.00;;;;;;5084294;28;19908;-73
2023/04/15 12:11:14;;;;;;;;;;;15.00;1.00;;;;;;5080318;28;20260;-73
2023/04/15 12:13:47;;;;;;;;;;;15.10;1.00;;;;;;5085973;28;20419;-72
2023/04/15 12:16:15;;;;;;;;;;;15.10;1.00;;;;;;5074813;28;19908;-73
2023/04/15 12:18:41;;;;;;;;;;;15.00;1.00;;;;;;5074712;28;19912;-73
2023/04/15 12:21:10;;;;;;;;;;;15.10;1.00;;;;;;5074627;28;20340;-73
2023/04/15 12:23:36;;;;;;;;;;;15.20;1.00;;;;;;5074340;28;19955;-73
2023/04/15 12:26:06;;;;;;;;;;;15.10;1.00;;;;;;5074262;28;20010;-73
2023/04/15 12:28:33;;;;;;;;;;;15.20;1.00;;;;;;5056292;28;20268;-73
2023/04/15 12:30:59;;;;;;;;;;;15.20;1.00;;;;;;5094286;28;20309;-74
2023/04/15 12:36:27;;;;;;;;;;;15.10;1.00;;;;;;5073681;28;19921;-80
2023/04/15 12:48:24;;;;;;;;;;;15.00;1.00;;;;;;5093891;28;20401;-80
2023/04/15 12:51:04;;;;;;;;;;;14.80;1.00;;;;;;5094313;28;19904;-75
2023/04/15 12:53:29;;;;;;;;;;;14.70;1.00;;;;;;5094298;28;19904;-74
2023/04/15 12:56:10;;;;;;;;;;;14.50;1.00;;;;;;5084857;28;19934;-74
2023/04/15 12:58:36;;;;;;;;;;;14.20;1.00;;;;;;5073739;28;19916;-74
2023/04/15 13:01:02;;;;;;;;;;;13.90;1.00;;;;;;5079568;28;19904;-74
2023/04/15 13:03:27;;;;;;;;;;;13.50;1.00;;;;;;5085318;28;19991;-71
2023/04/15 13:05:53;;;;;;;;;;;13.30;1.00;;;;;;5090130;28;19962;-71
2023/04/15 13:08:19;;;;;;;;;;;13.20;1.00;;;;;;5086342;28;19950;-71
2023/04/15 13:10:45;;;;;;;;;;;13.20;1.00;;;;;;5083692;28;19908;-71
2023/04/15 13:13:11;;;;;;;;;;;13.10;1.00;;;;;;5082386;28;19908;-71
2023/04/15 13:15:36;;;;;;;;;;;13.00;1.00;;;;;;5077734;28;19916;-71
2023/04/15 13:18:03;;;;;;;;;;;12.90;1.00;;;;;;5077779;28;20249;-72
2023/04/15 13:26:35;;;;;;;;;;;12.50;1.00;;;;;;5077667;28;19911;-75
2023/04/15 13:29:16;;;;;;;;;;;12.60;1.00;;;;;;5077766;28;19908;-74
2023/04/15 13:31:41;;;;;;;;;;;12.50;1.00;;;;;;5077880;28;19954;-73
2023/04/15 13:34:07;;;;;;;;;;;12.40;1.00;;;;;;5077750;28;19991;-72
2023/04/15 13:36:34;;;;;;;;;;;12.30;1.00;;;;;;5077599;28;20300;-72
2023/04/15 13:39:00;;;;;;;;;;;12.30;1.00;;;;;;5095992;28;19995;-72
2023/04/15 13:41:26;;;;;;;;;;;12.30;1.00;;;;;;5085133;28;19998;-72
2023/04/15 13:43:51;;;;;;;;;;;12.30;1.00;;;;;;5077151;28;19950;-72
2023/04/15 13:46:17;;;;;;;;;;;12.40;1.00;;;;;;5077497;28;19904;-72
2023/04/15 13:48:42;;;;;;;;;;;12.40;1.00;;;;;;5077242;28;19944;-72
2023/04/15 13:51:08;;;;;;;;;;;12.40;1.00;;;;;;5079790;28;19908;-74
2023/04/15 13:53:35;;;;;;;;;;;12.30;1.00;;;;;;5082871;28;19908;-73
2023/04/15 13:56:00;;;;;;;;;;;12.30;1.00;;;;;;5090920;28;20294;-73
2023/04/15 13:58:26;;;;;;;;;;;12.30;1.00;;;;;;5096528;28;19916;-73
2023/04/15 14:00:51;;;;;;;;;;;12.30;1.00;;;;;;5095991;28;19947;-74
2023/04/15 14:03:22;;;;;;;;;;;12.10;1.00;;;;;;5080385;28;19943;-74
2023/04/15 14:05:52;;;;;;;;;;;12.20;1.00;;;;;;5079805;28;19916;-72
2023/04/15 14:08:17;;;;;;;;;;;12.30;1.00;;;;;;5091505;28;19938;-72
2023/04/15 14:10:47;;;;;;;;;;;12.40;1.00;;;;;;5078011;28;19942;-72
2023/04/15 14:13:13;;;;;;;;;;;12.40;1.00;;;;;;5077371;28;19912;-72
2023/04/15 14:15:40;;;;;;;;;;;12.50;1.00;;;;;;5081730;28;20396;-72
2023/04/15 14:18:06;;;;;;;;;;;12.30;1.00;;;;;;5078275;28;19916;-72
2023/04/15 14:20:40;;;;;;;;;;;12.10;1.00;;;;;;5094279;28;19923;-73
2023/04/15 14:23:34;;;;;;;;;;;12.00;1.00;;;;;;5075530;28;19908;-73
2023/04/15 14:26:04;;;;;;;;;;;12.10;1.00;;;;;;5076425;28;19916;-73
2023/04/15 14:28:31;;;;;;;;;;;12.20;1.00;;;;;;5082024;28;19908;-73
2023/04/15 14:30:56;;;;;;;;;;;12.20;1.00;;;;;;5062904;28;19919;-75
2023/04/15 14:33:34;;;;;;;;;;;12.20;1.00;;;;;;5076344;28;19908;-75
2023/04/15 14:36:04;;;;;;;;;;;12.30;1.00;;;;;;5081422;28;20402;-74
2023/04/15 14:38:30;;;;;;;;;;;12.30;1.00;;;;;;5088920;28;19908;-74
2023/04/15 14:40:56;;;;;;;;;;;12.20;1.00;;;;;;5096073;28;20291;-74
2023/04/15 14:43:21;;;;;;;;;;;12.20;1.00;;;;;;5095375;28;19954;-73
2023/04/15 14:45:47;;;;;;;;;;;12.20;1.00;;;;;;5083663;28;19915;-74
2023/04/15 14:48:12;;;;;;;;;;;12.20;1.00;;;;;;5095733;28;19904;-74
2023/04/15 14:50:52;;;;;;;;;;;12.30;1.00;;;;;;5096813;28;19904;-75
2023/04/15 14:56:40;;;;;;;;;;;12.20;1.00;;;;;;5087916;28;19916;-80
2023/04/15 14:59:22;;;;;;;;;;;12.10;1.00;;;;;;5078329;28;19927;-79
2023/04/15 15:04:50;;;;;;;;;;;12.00;1.00;;;;;;5080068;28;19915;-74
2023/04/15 15:07:16;;;;;;;;;;;12.10;1.00;;;;;;5082324;28;19908;-74
2023/04/15 15:09:42;;;;;;;;;;;12.10;1.00;;;;;;5075655;28;20340;-74
2023/04/15 15:12:07;;;;;;;;;;;12.00;1.00;;;;;;5075701;28;19927;-75
2023/04/15 15:14:33;;;;;;;;;;;11.90;1.00;;;;;;5084037;28;19971;-74
2023/04/15 15:17:04;;;;;;;;;;;11.90;1.00;;;;;;5077415;28;19908;-74
2023/04/15 15:19:30;;;;;;;;;;;11.80;1.00;;;;;;5075654;28;19951;-74
2023/04/15 15:21:55;;;;;;;;;;;11.70;1.00;;;;;;5075812;28;19940;-74
2023/04/15 15:24:21;;;;;;;;;;;11.60;1.00;;;;;;5075521;28;19944;-74
2023/04/15 15:26:46;;;;;;;;;;;11.60;1.00;;;;;;5075483;28;19951;-74
2023/04/15 15:29:12;;;;;;;;;;;11.60;1.00;;;;;;5075145;28;19909;-75
2023/04/15 15:31:38;;;;;;;;;;;11.70;1.00;;;;;;5075191;28;19991;-74
2023/04/15 15:34:04;;;;;;;;;;;11.60;1.00;;;;;;5057419;28;19904;-74
2023/04/15 15:39:33;;;;;;;;;;;11.60;1.00;;;;;;5075031;28;19958;-79
2023/04/15 15:42:34;;;;;;;;;;;11.60;1.00;;;;;;5075615;28;20444;-80
2023/04/15 15:48:03;;;;;;;;;;;11.60;1.00;;;;;;5074431;28;20405;-78
2023/04/15 15:50:29;;;;;;;;;;;11.60;1.00;;;;;;5076285;28;19908;-75
2023/04/15 15:52:54;;;;;;;;;;;11.60;1.00;;;;;;5074337;28;19957;-75
2023/04/15 15:55:24;;;;;;;;;;;11.50;1.00;;;;;;5074976;28;19908;-74
2023/04/15 15:57:50;;;;;;;;;;;11.60;1.00;;;;;;5074517;28;19913;-74
2023/04/15 16:06:21;;;;;;;;;;;11.40;1.00;;;;;;5094989;28;19960;-75
2023/04/15 16:08:47;;;;;;;;;;;11.40;1.00;;;;;;5094959;28;20336;-75
2023/04/15 16:11:13;;;;;;;;;;;11.30;1.00;;;;;;5077802;28;19979;-74
2023/04/15 16:13:39;;;;;;;;;;;11.30;1.00;;;;;;5075126;28;20302;-75
2023/04/15 16:16:04;;;;;;;;;;;11.30;1.00;;;;;;5084891;28;19919;-74
2023/04/15 16:18:30;;;;;;;;;;;11.30;1.00;;;;;;5094952;28;20362;-74
2023/04/15 16:20:56;;;;;;;;;;;11.20;1.00;;;;;;5095193;28;19908;-75
2023/04/15 16:23:22;;;;;;;;;;;11.30;1.00;;;;;;5078752;28;19958;-74
2023/04/15 16:25:52;;;;;;;;;;;11.20;1.00;;;;;;5074361;28;19918;-74
2023/04/15 16:28:28;;;;;;;;;;;11.10;1.00;;;;;;5074505;28;19911;-74
2023/04/15 16:30:54;;;;;;;;;;;11.10;1.00;;;;;;5091729;28;19961;-75
2023/04/15 16:33:22;;;;;;;;;;;11.10;1.00;;;;;;5094423;28;19904;-74
2023/04/15 16:38:51;;;;;;;;;;;11.10;1.00;;;;;;5094424;28;20358;-79
2023/04/15 16:41:28;;;;;;;;;;;11.00;1.00;;;;;;5094594;28;20339;-79
2023/04/15 16:46:56;;;;;;;;;;;11.00;1.00;;;;;;5093851;28;19953;-79
2023/04/15 16:52:28;;;;;;;;;;;10.90;1.00;;;;;;5086684;28;19942;-74
2023/04/15 16:54:54;;;;;;;;;;;10.80;1.00;;;;;;5074035;28;19917;-75
2023/04/15 16:57:28;;;;;;;;;;;10.80;1.00;;;;;;5075058;28;19908;-90
2023/04/15 17:02:57;;;;;;;;;;;10.70;1.00;;;;;;5094293;28;19915;-87
2023/04/15 17:05:22;;;;;;;;;;;10.70;1.00;;;;;;5094849;28;19908;-87
2023/04/15 17:11:28;;;;;;;;;;;10.60;1.00;;;;;;5094679;28;20348;-87
2023/04/15 17:14:28;;;;;;;;;;;10.60;1.00;;;;;;5069429;28;19908;-87
2023/04/15 17:19:56;;;;;;;;;;;10.60;1.00;;;;;;5094513;28;19919;-87
2023/04/15 17:25:25;;;;;;;;;;;10.60;1.00;;;;;;5094092;28;19954;-81
2023/04/15 17:27:58;;;;;;;;;;;10.50;1.00;;;;;;5093237;28;19908;-77
2023/04/15 17:30:28;;;;;;;;;;;10.50;1.00;;;;;;5083252;28;20244;-77
2023/04/15 17:33:10;;;;;;;;;;;10.40;1.00;;;;;;5073889;28;19912;-76
2023/04/15 17:35:36;;;;;;;;;;;10.40;1.00;;;;;;5073778;28;19912;-76
2023/04/15 17:38:16;;;;;;;;;;;10.40;1.00;;;;;;5074027;28;19911;-74
2023/04/15 17:40:46;;;;;;;;;;;10.40;1.00;;;;;;5078459;28;19998;-74
2023/04/15 17:43:11;;;;;;;;;;;10.40;1.00;;;;;;5075960;28;19909;-75
2023/04/15 17:46:12;;;;;;;;;;;10.40;1.00;;;;;;5073709;28;19912;-75
2023/04/15 17:51:40;;;;;;;;;;;10.40;1.00;;;;;;5075067;28;19998;-75
2023/04/15 17:57:28;;;;;;;;;;;10.40;1.00;;;;;;5079161;28;20004;-83
2023/04/15 18:02:56;;;;;;;;;;;10.40;1.00;;;;;;5092913;28;19998;-84
2023/04/15 18:05:28;;;;;;;;;;;10.30;1.00;;;;;;5060895;28;19952;-85
2023/04/15 18:14:34;;;;;;;;;;;10.30;1.00;;;;;;5094249;28;19915;-86
2023/04/15 18:16:59;;;;;;;;;;;10.30;1.00;;;;;;5066291;28;19920;-87
2023/04/15 18:22:28;;;;;;;;;;;10.30;1.00;;;;;;5077222;28;19981;-84
2023/04/15 18:27:57;;;;;;;;;;;10.30;1.00;;;;;;5097271;28;19949;-85
2023/04/15 18:33:25;;;;;;;;;;;10.30;1.00;;;;;;5095175;28;19953;-85
2023/04/15 18:38:54;;;;;;;;;;;10.20;1.00;;;;;;5076851;28;19912;-86
2023/04/15 18:41:52;;;;;;;;;;;10.20;1.00;;;;;;5058477;28;19908;-85
2023/04/15 18:47:20;;;;;;;;;;;10.10;1.00;;;;;;5076336;28;20061;-84
2023/04/15 18:58:55;;;;;;;;;;;10.10;1.00;;;;;;5075944;28;19923;-84
2023/04/15 19:04:24;;;;;;;;;;;10.20;1.00;;;;;;5076029;28;20045;-85
2023/04/15 19:09:52;;;;;;;;;;;10.20;1.00;;;;;;5075743;28;20332;-85
2023/04/15 19:18:25;;;;;;;;;;;10.20;1.00;;;;;;5096463;28;19977;-85
2023/04/15 19:20:58;;;;;;;;;;;10.30;1.00;;;;;;5096178;28;19926;-84
2023/04/15 19:26:27;;;;;;;;;;;10.30;1.00;;;;;;5075581;28;20008;-85
2023/04/15 19:38:02;;;;;;;;;;;10.30;1.00;;;;;;5095752;28;19910;-84
2023/04/15 19:40:58;;;;;;;;;;;10.30;1.00;;;;;;5058430;28;20003;-84
2023/04/15 19:46:26;;;;;;;;;;;10.30;1.00;;;;;;5075322;28;19962;-84
2023/04/15 19:51:55;;;;;;;;;;;10.20;1.00;;;;;;5077850;28;19916;-84
2023/04/15 19:57:40;;;;;;;;;;;10.20;1.00;;;;;;5075253;28;19995;-84
2023/04/15 20:03:09;;;;;;;;;;;10.20;1.00;;;;;;5074999;28;19942;-85
2023/04/15 20:08:37;;;;;;;;;;;10.20;1.00;;;;;;5075358;28;19910;-84
2023/04/15 20:11:27;;;;;;;;;;;10.30;1.00;;;;;;5057183;28;19983;-84
2023/04/15 20:14:28;;;;;;;;;;;10.20;1.00;;;;;;5074244;28;19946;-84
2023/04/15 20:19:57;;;;;;;;;;;10.20;1.00;;;;;;5095097;28;19964;-85
2023/04/15 20:22:46;;;;;;;;;;;10.30;1.00;;;;;;5094536;28;19998;-85
2023/04/15 20:28:16;;;;;;;;;;;10.40;1.00;;;;;;5095234;28;19910;-85
2023/04/15 20:33:45;;;;;;;;;;;10.30;1.00;;;;;;5092575;28;19911;-78
2023/04/15 20:36:22;;;;;;;;;;;10.30;1.00;;;;;;5056108;28;19908;-77
2023/04/15 20:41:50;;;;;;;;;;;10.30;1.00;;;;;;5074550;28;20007;-83
2023/04/15 20:47:19;;;;;;;;;;;10.30;1.00;;;;;;5074397;28;19954;-82
2023/04/15 20:52:47;;;;;;;;;;;10.30;1.00;;;;;;5091324;28;19962;-83
2023/04/15 21:01:19;;;;;;;;;;;10.20;1.00;;;;;;5094079;28;20279;-81